sensor_id;sensor_type;location;lat;lon;timestamp;P1;durP1;ratioP1;P2;durP2;ratioP2
12135;SDS011;6131;56.420;15.548;2024-01-10T00:00:06;3.90;;;3.20;;
12135;SDS011;6131;56.420;15.548;2024-01-10T00:02:33;4.97;;;3.27;;
12135;SDS011;6131;56.420;15.548;2024-01-10T00:04:59;4.27;;;3.57;;
12135;SDS011;6131;56.420;15.548;2024-01-10T00:07:25;7.27;;;3.60;;
12135;SDS011;6131;56.420;15.548;2024-01-10T00:09:51;5.27;;;3.80;;
12135;SDS011;6131;56.420;15.548;2024-01-10T00:12:17;4.83;;;3.73;;
12135;SDS011;6131;56.420;15.548;2024-01-10T00:14:43;7.47;;;3.73;;
12135;SDS011;6131;56.420;15.548;2024-01-10T00:17:09;6.00;;;3.67;;
12135;SDS011;6131;56.420;15.548;2024-01-10T00:19:35;4.43;;;3.47;;
12135;SDS011;6131;56.420;15.548;2024-01-10T00:22:01;5.97;;;3.57;;
12135;SDS011;6131;56.420;15.548;2024-01-10T00:24:27;4.80;;;3.73;;
12135;SDS011;6131;56.420;15.548;2024-01-10T00:26:53;7.90;;;3.97;;
12135;SDS011;6131;56.420;15.548;2024-01-10T00:29:20;5.60;;;4.23;;
12135;SDS011;6131;56.420;15.548;2024-01-10T00:31:46;4.47;;;3.60;;
12135;SDS011;6131;56.420;15.548;2024-01-10T00:34:12;6.87;;;3.73;;
12135;SDS011;6131;56.420;15.548;2024-01-10T00:36:38;5.90;;;4.17;;
12135;SDS011;6131;56.420;15.548;2024-01-10T00:39:04;4.70;;;3.90;;
12135;SDS011;6131;56.420;15.548;2024-01-10T00:41:30;7.53;;;3.87;;
12135;SDS011;6131;56.420;15.548;2024-01-10T00:43:56;5.20;;;3.97;;
12135;SDS011;6131;56.420;15.548;2024-01-10T00:46:22;6.47;;;4.03;;
12135;SDS011;6131;56.420;15.548;2024-01-10T00:48:48;12.23;;;4.20;;
12135;SDS011;6131;56.420;15.548;2024-01-10T00:51:14;4.13;;;3.17;;
12135;SDS011;6131;56.420;15.548;2024-01-10T00:53:40;6.13;;;3.73;;
12135;SDS011;6131;56.420;15.548;2024-01-10T00:56:07;6.07;;;3.87;;
12135;SDS011;6131;56.420;15.548;2024-01-10T00:58:33;5.80;;;3.83;;
12135;SDS011;6131;56.420;15.548;2024-01-10T01:00:59;4.53;;;3.53;;
12135;SDS011;6131;56.420;15.548;2024-01-10T01:03:25;4.77;;;3.57;;
12135;SDS011;6131;56.420;15.548;2024-01-10T01:05:51;7.87;;;4.27;;
12135;SDS011;6131;56.420;15.548;2024-01-10T01:08:17;6.70;;;3.83;;
12135;SDS011;6131;56.420;15.548;2024-01-10T01:10:43;6.33;;;4.00;;
12135;SDS011;6131;56.420;15.548;2024-01-10T01:13:09;6.23;;;4.60;;
12135;SDS011;6131;56.420;15.548;2024-01-10T01:15:35;5.00;;;3.57;;
12135;SDS011;6131;56.420;15.548;2024-01-10T01:18:01;5.17;;;3.70;;
12135;SDS011;6131;56.420;15.548;2024-01-10T01:20:27;6.57;;;3.90;;
12135;SDS011;6131;56.420;15.548;2024-01-10T01:22:53;6.43;;;3.57;;
12135;SDS011;6131;56.420;15.548;2024-01-10T01:25:19;5.30;;;3.77;;
12135;SDS011;6131;56.420;15.548;2024-01-10T01:27:45;7.23;;;3.50;;
12135;SDS011;6131;56.420;15.548;2024-01-10T01:30:11;7.03;;;4.20;;
12135;SDS011;6131;56.420;15.548;2024-01-10T01:32:38;4.43;;;3.33;;
12135;SDS011;6131;56.420;15.548;2024-01-10T01:35:04;4.90;;;3.40;;
12135;SDS011;6131;56.420;15.548;2024-01-10T01:37:30;9.00;;;3.83;;
12135;SDS011;6131;56.420;15.548;2024-01-10T01:39:56;7.00;;;4.07;;
12135;SDS011;6131;56.420;15.548;2024-01-10T01:42:22;5.57;;;3.87;;
12135;SDS011;6131;56.420;15.548;2024-01-10T01:44:48;5.03;;;3.77;;
12135;SDS011;6131;56.420;15.548;2024-01-10T01:47:15;5.17;;;4.37;;
12135;SDS011;6131;56.420;15.548;2024-01-10T01:49:41;4.93;;;3.87;;
12135;SDS011;6131;56.420;15.548;2024-01-10T01:52:08;6.43;;;3.57;;
12135;SDS011;6131;56.420;15.548;2024-01-10T01:54:34;4.80;;;3.30;;
12135;SDS011;6131;56.420;15.548;2024-01-10T01:57:00;5.43;;;4.20;;
12135;SDS011;6131;56.420;15.548;2024-01-10T01:59:27;8.07;;;4.50;;
12135;SDS011;6131;56.420;15.548;2024-01-10T02:01:53;5.70;;;3.60;;
12135;SDS011;6131;56.420;15.548;2024-01-10T02:04:21;7.13;;;4.17;;
12135;SDS011;6131;56.420;15.548;2024-01-10T02:06:48;7.37;;;3.80;;
12135;SDS011;6131;56.420;15.548;2024-01-10T02:09:14;4.00;;;3.40;;
12135;SDS011;6131;56.420;15.548;2024-01-10T02:11:40;4.20;;;3.33;;
12135;SDS011;6131;56.420;15.548;2024-01-10T02:14:06;6.23;;;3.90;;
12135;SDS011;6131;56.420;15.548;2024-01-10T02:16:32;5.43;;;3.63;;
12135;SDS011;6131;56.420;15.548;2024-01-10T02:18:58;5.13;;;3.53;;
12135;SDS011;6131;56.420;15.548;2024-01-10T02:21:26;5.03;;;3.80;;
12135;SDS011;6131;56.420;15.548;2024-01-10T02:23:52;4.73;;;3.50;;
12135;SDS011;6131;56.420;15.548;2024-01-10T02:26:18;5.17;;;3.57;;
12135;SDS011;6131;56.420;15.548;2024-01-10T02:28:44;5.60;;;4.10;;
12135;SDS011;6131;56.420;15.548;2024-01-10T02:31:10;5.27;;;3.60;;
12135;SDS011;6131;56.420;15.548;2024-01-10T02:33:36;5.00;;;3.60;;
12135;SDS011;6131;56.420;15.548;2024-01-10T02:36:02;4.80;;;3.23;;
12135;SDS011;6131;56.420;15.548;2024-01-10T02:38:28;5.80;;;3.53;;
12135;SDS011;6131;56.420;15.548;2024-01-10T02:40:54;7.60;;;3.87;;
12135;SDS011;6131;56.420;15.548;2024-01-10T02:43:21;5.73;;;4.03;;
12135;SDS011;6131;56.420;15.548;2024-01-10T02:45:47;7.90;;;3.57;;
12135;SDS011;6131;56.420;15.548;2024-01-10T02:48:13;6.03;;;3.87;;
12135;SDS011;6131;56.420;15.548;2024-01-10T02:50:39;5.90;;;3.73;;
12135;SDS011;6131;56.420;15.548;2024-01-10T02:53:05;6.20;;;3.73;;
12135;SDS011;6131;56.420;15.548;2024-01-10T02:55:31;7.97;;;4.03;;
12135;SDS011;6131;56.420;15.548;2024-01-10T02:57:57;6.10;;;3.63;;
12135;SDS011;6131;56.420;15.548;2024-01-10T03:00:23;5.63;;;3.97;;
12135;SDS011;6131;56.420;15.548;2024-01-10T03:02:49;5.13;;;3.77;;
12135;SDS011;6131;56.420;15.548;2024-01-10T03:05:15;6.10;;;4.07;;
12135;SDS011;6131;56.420;15.548;2024-01-10T03:07:41;5.37;;;3.83;;
12135;SDS011;6131;56.420;15.548;2024-01-10T03:10:07;5.23;;;3.73;;
12135;SDS011;6131;56.420;15.548;2024-01-10T03:12:33;6.53;;;3.77;;
12135;SDS011;6131;56.420;15.548;2024-01-10T03:15:03;6.43;;;3.90;;
12135;SDS011;6131;56.420;15.548;2024-01-10T03:17:29;5.17;;;3.80;;
12135;SDS011;6131;56.420;15.548;2024-01-10T03:19:55;6.00;;;3.73;;
12135;SDS011;6131;56.420;15.548;2024-01-10T03:22:21;5.60;;;4.10;;
12135;SDS011;6131;56.420;15.548;2024-01-10T03:24:47;5.77;;;4.27;;
12135;SDS011;6131;56.420;15.548;2024-01-10T03:27:13;4.57;;;3.50;;
12135;SDS011;6131;56.420;15.548;2024-01-10T03:29:39;5.50;;;3.80;;
12135;SDS011;6131;56.420;15.548;2024-01-10T03:32:05;6.93;;;4.27;;
12135;SDS011;6131;56.420;15.548;2024-01-10T03:34:31;7.80;;;4.10;;
12135;SDS011;6131;56.420;15.548;2024-01-10T03:36:57;4.63;;;3.17;;
12135;SDS011;6131;56.420;15.548;2024-01-10T03:39:23;4.23;;;3.20;;
12135;SDS011;6131;56.420;15.548;2024-01-10T03:41:49;9.13;;;3.90;;
12135;SDS011;6131;56.420;15.548;2024-01-10T03:44:15;6.17;;;4.07;;
12135;SDS011;6131;56.420;15.548;2024-01-10T03:46:41;5.17;;;3.20;;
12135;SDS011;6131;56.420;15.548;2024-01-10T03:49:07;4.63;;;3.40;;
12135;SDS011;6131;56.420;15.548;2024-01-10T03:51:33;5.93;;;3.30;;
12135;SDS011;6131;56.420;15.548;2024-01-10T03:53:59;3.80;;;3.13;;
12135;SDS011;6131;56.420;15.548;2024-01-10T03:56:25;5.57;;;3.40;;
12135;SDS011;6131;56.420;15.548;2024-01-10T03:58:51;6.03;;;3.73;;
12135;SDS011;6131;56.420;15.548;2024-01-10T04:01:21;4.67;;;3.03;;
12135;SDS011;6131;56.420;15.548;2024-01-10T04:03:47;4.97;;;3.27;;
12135;SDS011;6131;56.420;15.548;2024-01-10T04:06:13;5.27;;;2.80;;
12135;SDS011;6131;56.420;15.548;2024-01-10T04:08:39;4.83;;;3.33;;
12135;SDS011;6131;56.420;15.548;2024-01-10T04:11:05;4.97;;;3.17;;
12135;SDS011;6131;56.420;15.548;2024-01-10T04:13:31;4.47;;;2.87;;
12135;SDS011;6131;56.420;15.548;2024-01-10T04:15:57;3.33;;;2.87;;
12135;SDS011;6131;56.420;15.548;2024-01-10T04:18:23;4.10;;;3.10;;
12135;SDS011;6131;56.420;15.548;2024-01-10T04:20:49;4.97;;;2.73;;
12135;SDS011;6131;56.420;15.548;2024-01-10T04:23:15;3.53;;;2.77;;
12135;SDS011;6131;56.420;15.548;2024-01-10T04:25:41;4.10;;;2.27;;
12135;SDS011;6131;56.420;15.548;2024-01-10T04:28:07;5.30;;;3.00;;
12135;SDS011;6131;56.420;15.548;2024-01-10T04:30:33;3.80;;;2.80;;
12135;SDS011;6131;56.420;15.548;2024-01-10T04:32:59;5.50;;;3.23;;
12135;SDS011;6131;56.420;15.548;2024-01-10T04:35:25;4.37;;;3.10;;
12135;SDS011;6131;56.420;15.548;2024-01-10T04:37:51;4.70;;;3.43;;
12135;SDS011;6131;56.420;15.548;2024-01-10T04:40:17;5.07;;;3.23;;
12135;SDS011;6131;56.420;15.548;2024-01-10T04:42:43;4.20;;;2.80;;
12135;SDS011;6131;56.420;15.548;2024-01-10T04:45:10;4.17;;;3.10;;
12135;SDS011;6131;56.420;15.548;2024-01-10T04:47:36;5.63;;;3.73;;
12135;SDS011;6131;56.420;15.548;2024-01-10T04:50:02;6.57;;;3.83;;
12135;SDS011;6131;56.420;15.548;2024-01-10T04:52:28;5.80;;;3.47;;
12135;SDS011;6131;56.420;15.548;2024-01-10T04:54:54;5.17;;;3.70;;
12135;SDS011;6131;56.420;15.548;2024-01-10T04:57:20;6.67;;;3.73;;
12135;SDS011;6131;56.420;15.548;2024-01-10T04:59:46;7.90;;;3.57;;
12135;SDS011;6131;56.420;15.548;2024-01-10T05:02:12;5.10;;;3.33;;
12135;SDS011;6131;56.420;15.548;2024-01-10T05:04:38;8.17;;;3.60;;
12135;SDS011;6131;56.420;15.548;2024-01-10T05:07:04;5.07;;;3.50;;
12135;SDS011;6131;56.420;15.548;2024-01-10T05:09:30;4.10;;;2.90;;
12135;SDS011;6131;56.420;15.548;2024-01-10T05:11:56;5.00;;;3.33;;
12135;SDS011;6131;56.420;15.548;2024-01-10T05:14:22;5.90;;;3.30;;
12135;SDS011;6131;56.420;15.548;2024-01-10T05:16:48;3.97;;;3.17;;
12135;SDS011;6131;56.420;15.548;2024-01-10T05:19:14;5.60;;;3.83;;
12135;SDS011;6131;56.420;15.548;2024-01-10T05:21:40;4.40;;;2.97;;
12135;SDS011;6131;56.420;15.548;2024-01-10T05:24:06;5.60;;;3.27;;
12135;SDS011;6131;56.420;15.548;2024-01-10T05:26:32;4.33;;;2.83;;
12135;SDS011;6131;56.420;15.548;2024-01-10T05:28:58;5.60;;;3.00;;
12135;SDS011;6131;56.420;15.548;2024-01-10T05:31:24;3.50;;;2.40;;
12135;SDS011;6131;56.420;15.548;2024-01-10T05:33:50;6.17;;;2.90;;
12135;SDS011;6131;56.420;15.548;2024-01-10T05:36:16;4.53;;;2.97;;
12135;SDS011;6131;56.420;15.548;2024-01-10T05:38:42;5.33;;;2.53;;
12135;SDS011;6131;56.420;15.548;2024-01-10T05:41:08;3.83;;;2.73;;
12135;SDS011;6131;56.420;15.548;2024-01-10T05:43:34;5.47;;;3.13;;
12135;SDS011;6131;56.420;15.548;2024-01-10T05:46:01;3.73;;;2.73;;
12135;SDS011;6131;56.420;15.548;2024-01-10T05:48:29;3.50;;;2.60;;
12135;SDS011;6131;56.420;15.548;2024-01-10T05:50:57;5.57;;;3.03;;
12135;SDS011;6131;56.420;15.548;2024-01-10T05:53:23;4.33;;;2.60;;
12135;SDS011;6131;56.420;15.548;2024-01-10T05:55:50;4.33;;;3.10;;
12135;SDS011;6131;56.420;15.548;2024-01-10T05:58:16;4.40;;;2.57;;
12135;SDS011;6131;56.420;15.548;2024-01-10T06:00:42;3.70;;;2.67;;
12135;SDS011;6131;56.420;15.548;2024-01-10T06:03:08;3.40;;;2.50;;
12135;SDS011;6131;56.420;15.548;2024-01-10T06:05:34;3.50;;;2.67;;
12135;SDS011;6131;56.420;15.548;2024-01-10T06:08:00;4.90;;;2.80;;
12135;SDS011;6131;56.420;15.548;2024-01-10T06:10:29;3.60;;;2.60;;
12135;SDS011;6131;56.420;15.548;2024-01-10T06:12:55;3.70;;;2.67;;
12135;SDS011;6131;56.420;15.548;2024-01-10T06:15:21;5.57;;;2.70;;
12135;SDS011;6131;56.420;15.548;2024-01-10T06:17:47;3.10;;;2.37;;
12135;SDS011;6131;56.420;15.548;2024-01-10T06:20:14;4.20;;;2.90;;
12135;SDS011;6131;56.420;15.548;2024-01-10T06:22:41;3.73;;;2.43;;
12135;SDS011;6131;56.420;15.548;2024-01-10T06:25:07;4.27;;;2.97;;
12135;SDS011;6131;56.420;15.548;2024-01-10T06:27:33;3.17;;;2.30;;
12135;SDS011;6131;56.420;15.548;2024-01-10T06:29:59;3.50;;;2.50;;
12135;SDS011;6131;56.420;15.548;2024-01-10T06:32:25;3.83;;;2.67;;
12135;SDS011;6131;56.420;15.548;2024-01-10T06:34:51;4.07;;;2.33;;
12135;SDS011;6131;56.420;15.548;2024-01-10T06:37:18;3.13;;;2.30;;
12135;SDS011;6131;56.420;15.548;2024-01-10T06:39:44;4.27;;;2.63;;
12135;SDS011;6131;56.420;15.548;2024-01-10T06:42:10;3.37;;;2.50;;
12135;SDS011;6131;56.420;15.548;2024-01-10T06:44:37;5.07;;;3.00;;
12135;SDS011;6131;56.420;15.548;2024-01-10T06:47:03;2.97;;;2.33;;
12135;SDS011;6131;56.420;15.548;2024-01-10T06:49:29;4.30;;;2.47;;
12135;SDS011;6131;56.420;15.548;2024-01-10T06:51:55;4.57;;;2.70;;
12135;SDS011;6131;56.420;15.548;2024-01-10T06:54:21;3.90;;;2.57;;
12135;SDS011;6131;56.420;15.548;2024-01-10T06:56:47;2.93;;;2.60;;
12135;SDS011;6131;56.420;15.548;2024-01-10T06:59:13;3.60;;;2.60;;
12135;SDS011;6131;56.420;15.548;2024-01-10T07:01:39;4.37;;;2.80;;
12135;SDS011;6131;56.420;15.548;2024-01-10T07:04:05;4.43;;;2.43;;
12135;SDS011;6131;56.420;15.548;2024-01-10T07:06:31;3.87;;;2.70;;
12135;SDS011;6131;56.420;15.548;2024-01-10T07:08:57;4.03;;;2.70;;
12135;SDS011;6131;56.420;15.548;2024-01-10T07:11:23;4.93;;;2.87;;
12135;SDS011;6131;56.420;15.548;2024-01-10T07:13:49;3.70;;;2.57;;
12135;SDS011;6131;56.420;15.548;2024-01-10T07:16:15;3.83;;;2.73;;
12135;SDS011;6131;56.420;15.548;2024-01-10T07:18:42;4.73;;;3.10;;
12135;SDS011;6131;56.420;15.548;2024-01-10T07:21:08;4.23;;;2.60;;
12135;SDS011;6131;56.420;15.548;2024-01-10T07:23:35;6.07;;;2.67;;
12135;SDS011;6131;56.420;15.548;2024-01-10T07:26:05;3.07;;;2.20;;
12135;SDS011;6131;56.420;15.548;2024-01-10T07:28:31;4.23;;;2.53;;
12135;SDS011;6131;56.420;15.548;2024-01-10T07:30:57;3.63;;;2.80;;
12135;SDS011;6131;56.420;15.548;2024-01-10T07:33:24;5.23;;;3.03;;
12135;SDS011;6131;56.420;15.548;2024-01-10T07:35:50;3.17;;;2.43;;
12135;SDS011;6131;56.420;15.548;2024-01-10T07:38:18;2.83;;;2.37;;
12135;SDS011;6131;56.420;15.548;2024-01-10T07:40:44;4.33;;;2.80;;
12135;SDS011;6131;56.420;15.548;2024-01-10T07:43:10;3.93;;;2.60;;
12135;SDS011;6131;56.420;15.548;2024-01-10T07:45:36;4.30;;;2.43;;
12135;SDS011;6131;56.420;15.548;2024-01-10T07:48:02;3.87;;;2.50;;
12135;SDS011;6131;56.420;15.548;2024-01-10T07:50:28;4.33;;;2.90;;
12135;SDS011;6131;56.420;15.548;2024-01-10T07:52:54;4.17;;;2.70;;
12135;SDS011;6131;56.420;15.548;2024-01-10T07:55:20;5.10;;;2.97;;
12135;SDS011;6131;56.420;15.548;2024-01-10T07:57:46;3.97;;;2.90;;
12135;SDS011;6131;56.420;15.548;2024-01-10T08:00:12;4.53;;;3.30;;
12135;SDS011;6131;56.420;15.548;2024-01-10T08:02:38;5.00;;;3.20;;
12135;SDS011;6131;56.420;15.548;2024-01-10T08:05:05;4.67;;;2.93;;
12135;SDS011;6131;56.420;15.548;2024-01-10T08:07:35;5.33;;;3.33;;
12135;SDS011;6131;56.420;15.548;2024-01-10T08:10:07;5.03;;;3.43;;
12135;SDS011;6131;56.420;15.548;2024-01-10T08:12:34;5.33;;;3.43;;
12135;SDS011;6131;56.420;15.548;2024-01-10T08:15:00;3.87;;;2.90;;
12135;SDS011;6131;56.420;15.548;2024-01-10T08:17:26;3.87;;;3.07;;
12135;SDS011;6131;56.420;15.548;2024-01-10T08:19:53;5.73;;;3.13;;
12135;SDS011;6131;56.420;15.548;2024-01-10T08:22:19;4.77;;;2.93;;
12135;SDS011;6131;56.420;15.548;2024-01-10T08:24:46;3.77;;;2.80;;
12135;SDS011;6131;56.420;15.548;2024-01-10T08:27:12;3.97;;;3.10;;
12135;SDS011;6131;56.420;15.548;2024-01-10T08:29:38;5.17;;;2.90;;
12135;SDS011;6131;56.420;15.548;2024-01-10T08:32:04;3.43;;;2.70;;
12135;SDS011;6131;56.420;15.548;2024-01-10T08:34:30;4.63;;;3.30;;
12135;SDS011;6131;56.420;15.548;2024-01-10T08:36:57;4.83;;;3.00;;
12135;SDS011;6131;56.420;15.548;2024-01-10T08:39:23;5.83;;;3.83;;
12135;SDS011;6131;56.420;15.548;2024-01-10T08:41:50;7.40;;;3.97;;
12135;SDS011;6131;56.420;15.548;2024-01-10T08:44:17;6.93;;;3.97;;
12135;SDS011;6131;56.420;15.548;2024-01-10T08:46:43;5.30;;;3.27;;
12135;SDS011;6131;56.420;15.548;2024-01-10T08:49:09;5.23;;;3.33;;
12135;SDS011;6131;56.420;15.548;2024-01-10T08:51:35;5.40;;;3.70;;
12135;SDS011;6131;56.420;15.548;2024-01-10T08:54:01;5.73;;;3.30;;
12135;SDS011;6131;56.420;15.548;2024-01-10T08:56:28;5.23;;;3.60;;
12135;SDS011;6131;56.420;15.548;2024-01-10T08:58:54;4.43;;;3.30;;
12135;SDS011;6131;56.420;15.548;2024-01-10T09:01:20;5.27;;;3.90;;
12135;SDS011;6131;56.420;15.548;2024-01-10T09:03:47;6.17;;;4.30;;
12135;SDS011;6131;56.420;15.548;2024-01-10T09:06:13;4.80;;;3.67;;
12135;SDS011;6131;56.420;15.548;2024-01-10T09:08:40;6.43;;;4.50;;
12135;SDS011;6131;56.420;15.548;2024-01-10T09:11:07;4.77;;;3.63;;
12135;SDS011;6131;56.420;15.548;2024-01-10T09:13:33;5.30;;;3.73;;
12135;SDS011;6131;56.420;15.548;2024-01-10T09:15:59;7.57;;;5.07;;
12135;SDS011;6131;56.420;15.548;2024-01-10T09:18:25;6.10;;;4.10;;
12135;SDS011;6131;56.420;15.548;2024-01-10T09:20:52;6.37;;;3.93;;
12135;SDS011;6131;56.420;15.548;2024-01-10T09:23:18;7.43;;;4.33;;
12135;SDS011;6131;56.420;15.548;2024-01-10T09:25:44;6.07;;;4.43;;
12135;SDS011;6131;56.420;15.548;2024-01-10T09:28:10;6.20;;;4.30;;
12135;SDS011;6131;56.420;15.548;2024-01-10T09:30:36;6.43;;;4.07;;
12135;SDS011;6131;56.420;15.548;2024-01-10T09:33:02;7.10;;;4.23;;
12135;SDS011;6131;56.420;15.548;2024-01-10T09:35:28;7.20;;;4.20;;
12135;SDS011;6131;56.420;15.548;2024-01-10T09:37:54;5.20;;;3.90;;
12135;SDS011;6131;56.420;15.548;2024-01-10T09:40:20;5.63;;;4.30;;
12135;SDS011;6131;56.420;15.548;2024-01-10T09:42:50;8.00;;;4.73;;
12135;SDS011;6131;56.420;15.548;2024-01-10T09:45:16;5.90;;;4.33;;
12135;SDS011;6131;56.420;15.548;2024-01-10T09:47:43;7.77;;;4.43;;
12135;SDS011;6131;56.420;15.548;2024-01-10T09:50:11;5.93;;;4.17;;
12135;SDS011;6131;56.420;15.548;2024-01-10T09:52:50;5.70;;;4.07;;
12135;SDS011;6131;56.420;15.548;2024-01-10T09:55:16;6.73;;;4.40;;
12135;SDS011;6131;56.420;15.548;2024-01-10T09:57:43;6.80;;;4.13;;
12135;SDS011;6131;56.420;15.548;2024-01-10T10:00:10;6.10;;;4.30;;
12135;SDS011;6131;56.420;15.548;2024-01-10T10:02:37;5.03;;;3.70;;
12135;SDS011;6131;56.420;15.548;2024-01-10T10:05:14;5.60;;;4.13;;
12135;SDS011;6131;56.420;15.548;2024-01-10T10:07:46;4.93;;;4.03;;
12135;SDS011;6131;56.420;15.548;2024-01-10T10:10:12;7.83;;;3.93;;
12135;SDS011;6131;56.420;15.548;2024-01-10T10:12:50;4.93;;;3.80;;
12135;SDS011;6131;56.420;15.548;2024-01-10T10:15:18;5.20;;;4.33;;
12135;SDS011;6131;56.420;15.548;2024-01-10T10:17:46;6.00;;;4.00;;
12135;SDS011;6131;56.420;15.548;2024-01-10T10:20:26;5.17;;;3.53;;
12135;SDS011;6131;56.420;15.548;2024-01-10T10:25:31;4.20;;;3.50;;
12135;SDS011;6131;56.420;15.548;2024-01-10T10:27:58;5.00;;;3.40;;
12135;SDS011;6131;56.420;15.548;2024-01-10T10:30:24;6.00;;;4.00;;
12135;SDS011;6131;56.420;15.548;2024-01-10T10:32:50;4.47;;;3.67;;
12135;SDS011;6131;56.420;15.548;2024-01-10T10:35:18;4.50;;;3.13;;
12135;SDS011;6131;56.420;15.548;2024-01-10T10:37:45;4.60;;;3.67;;
12135;SDS011;6131;56.420;15.548;2024-01-10T10:40:11;4.67;;;3.50;;
12135;SDS011;6131;56.420;15.548;2024-01-10T10:42:38;5.17;;;3.23;;
12135;SDS011;6131;56.420;15.548;2024-01-10T10:45:06;5.30;;;3.43;;
12135;SDS011;6131;56.420;15.548;2024-01-10T10:47:35;3.97;;;3.13;;
12135;SDS011;6131;56.420;15.548;2024-01-10T10:50:02;4.30;;;3.13;;
12135;SDS011;6131;56.420;15.548;2024-01-10T10:52:29;4.63;;;3.50;;
12135;SDS011;6131;56.420;15.548;2024-01-10T10:54:56;5.63;;;3.10;;
12135;SDS011;6131;56.420;15.548;2024-01-10T10:57:26;6.30;;;3.20;;
12135;SDS011;6131;56.420;15.548;2024-01-10T10:59:53;4.10;;;2.93;;
12135;SDS011;6131;56.420;15.548;2024-01-10T11:02:22;4.60;;;3.10;;
12135;SDS011;6131;56.420;15.548;2024-01-10T11:04:48;3.93;;;3.10;;
12135;SDS011;6131;56.420;15.548;2024-01-10T11:07:15;3.83;;;3.10;;
12135;SDS011;6131;56.420;15.548;2024-01-10T11:09:41;3.87;;;2.97;;
12135;SDS011;6131;56.420;15.548;2024-01-10T11:14:49;4.13;;;3.07;;
12135;SDS011;6131;56.420;15.548;2024-01-10T11:17:26;3.57;;;2.70;;
12135;SDS011;6131;56.420;15.548;2024-01-10T11:20:05;5.93;;;3.53;;
12135;SDS011;6131;56.420;15.548;2024-01-10T11:25:03;5.50;;;4.10;;
12135;SDS011;6131;56.420;15.548;2024-01-10T11:27:30;5.53;;;3.60;;
12135;SDS011;6131;56.420;15.548;2024-01-10T11:29:56;4.30;;;3.00;;
12135;SDS011;6131;56.420;15.548;2024-01-10T11:32:24;4.47;;;3.37;;
12135;SDS011;6131;56.420;15.548;2024-01-10T11:37:49;4.17;;;2.93;;
12135;SDS011;6131;56.420;15.548;2024-01-10T11:40:16;4.17;;;2.73;;
12135;SDS011;6131;56.420;15.548;2024-01-10T11:42:50;3.20;;;2.87;;
12135;SDS011;6131;56.420;15.548;2024-01-10T11:47:59;3.60;;;2.90;;
12135;SDS011;6131;56.420;15.548;2024-01-10T11:50:25;3.50;;;2.70;;
12135;SDS011;6131;56.420;15.548;2024-01-10T11:52:54;2.50;;;2.30;;
12135;SDS011;6131;56.420;15.548;2024-01-10T11:58:08;2.90;;;2.50;;
12135;SDS011;6131;56.420;15.548;2024-01-10T12:00:35;3.80;;;2.20;;
12135;SDS011;6131;56.420;15.548;2024-01-10T12:03:01;3.50;;;2.67;;
12135;SDS011;6131;56.420;15.548;2024-01-10T12:05:28;2.70;;;2.17;;
12135;SDS011;6131;56.420;15.548;2024-01-10T12:07:55;3.50;;;2.27;;
12135;SDS011;6131;56.420;15.548;2024-01-10T12:10:21;3.70;;;2.47;;
12135;SDS011;6131;56.420;15.548;2024-01-10T12:12:47;3.07;;;2.47;;
12135;SDS011;6131;56.420;15.548;2024-01-10T12:15:13;2.80;;;2.17;;
12135;SDS011;6131;56.420;15.548;2024-01-10T12:17:39;2.57;;;2.20;;
12135;SDS011;6131;56.420;15.548;2024-01-10T12:20:05;2.80;;;2.17;;
12135;SDS011;6131;56.420;15.548;2024-01-10T12:22:31;2.60;;;2.10;;
12135;SDS011;6131;56.420;15.548;2024-01-10T12:25:03;3.27;;;2.10;;
12135;SDS011;6131;56.420;15.548;2024-01-10T12:27:29;2.93;;;2.07;;
12135;SDS011;6131;56.420;15.548;2024-01-10T12:29:55;2.83;;;1.97;;
12135;SDS011;6131;56.420;15.548;2024-01-10T12:32:23;2.97;;;2.23;;
12135;SDS011;6131;56.420;15.548;2024-01-10T12:34:51;2.27;;;1.90;;
12135;SDS011;6131;56.420;15.548;2024-01-10T12:37:20;2.97;;;2.17;;
12135;SDS011;6131;56.420;15.548;2024-01-10T12:39:46;2.83;;;1.90;;
12135;SDS011;6131;56.420;15.548;2024-01-10T12:42:12;3.10;;;2.20;;
12135;SDS011;6131;56.420;15.548;2024-01-10T12:44:38;3.83;;;2.20;;
12135;SDS011;6131;56.420;15.548;2024-01-10T12:47:08;2.43;;;1.90;;
12135;SDS011;6131;56.420;15.548;2024-01-10T12:49:44;3.50;;;2.07;;
12135;SDS011;6131;56.420;15.548;2024-01-10T12:52:11;1.80;;;1.60;;
12135;SDS011;6131;56.420;15.548;2024-01-10T12:54:38;2.60;;;1.83;;
12135;SDS011;6131;56.420;15.548;2024-01-10T12:57:04;2.30;;;1.90;;
12135;SDS011;6131;56.420;15.548;2024-01-10T12:59:31;3.07;;;1.90;;
12135;SDS011;6131;56.420;15.548;2024-01-10T13:01:57;2.23;;;1.80;;
12135;SDS011;6131;56.420;15.548;2024-01-10T13:04:24;1.80;;;1.50;;
12135;SDS011;6131;56.420;15.548;2024-01-10T13:06:50;2.50;;;1.93;;
12135;SDS011;6131;56.420;15.548;2024-01-10T13:09:16;2.50;;;1.73;;
12135;SDS011;6131;56.420;15.548;2024-01-10T13:11:42;2.63;;;1.97;;
12135;SDS011;6131;56.420;15.548;2024-01-10T13:14:08;2.57;;;2.13;;
12135;SDS011;6131;56.420;15.548;2024-01-10T13:16:34;3.27;;;1.77;;
12135;SDS011;6131;56.420;15.548;2024-01-10T13:19:00;2.73;;;1.87;;
12135;SDS011;6131;56.420;15.548;2024-01-10T13:21:26;2.10;;;1.90;;
12135;SDS011;6131;56.420;15.548;2024-01-10T13:23:52;2.20;;;1.80;;
12135;SDS011;6131;56.420;15.548;2024-01-10T13:26:18;2.10;;;1.80;;
12135;SDS011;6131;56.420;15.548;2024-01-10T13:28:45;3.00;;;1.80;;
12135;SDS011;6131;56.420;15.548;2024-01-10T13:31:10;2.10;;;1.50;;
12135;SDS011;6131;56.420;15.548;2024-01-10T13:33:37;2.10;;;1.73;;
12135;SDS011;6131;56.420;15.548;2024-01-10T13:36:03;2.97;;;1.70;;
12135;SDS011;6131;56.420;15.548;2024-01-10T13:38:30;2.47;;;1.80;;
12135;SDS011;6131;56.420;15.548;2024-01-10T13:40:56;2.53;;;1.97;;
12135;SDS011;6131;56.420;15.548;2024-01-10T13:43:22;2.83;;;2.00;;
12135;SDS011;6131;56.420;15.548;2024-01-10T13:45:48;2.50;;;1.80;;
12135;SDS011;6131;56.420;15.548;2024-01-10T13:48:14;2.33;;;1.70;;
12135;SDS011;6131;56.420;15.548;2024-01-10T13:50:41;2.83;;;1.73;;
12135;SDS011;6131;56.420;15.548;2024-01-10T13:53:07;2.57;;;1.70;;
12135;SDS011;6131;56.420;15.548;2024-01-10T13:55:33;1.90;;;1.60;;
12135;SDS011;6131;56.420;15.548;2024-01-10T13:58:00;2.00;;;1.77;;
12135;SDS011;6131;56.420;15.548;2024-01-10T14:00:26;1.83;;;1.43;;
12135;SDS011;6131;56.420;15.548;2024-01-10T14:02:53;2.07;;;1.60;;
12135;SDS011;6131;56.420;15.548;2024-01-10T14:05:24;2.97;;;1.80;;
12135;SDS011;6131;56.420;15.548;2024-01-10T14:07:50;1.77;;;1.57;;
12135;SDS011;6131;56.420;15.548;2024-01-10T14:10:16;2.20;;;1.93;;
12135;SDS011;6131;56.420;15.548;2024-01-10T14:12:42;1.97;;;1.70;;
12135;SDS011;6131;56.420;15.548;2024-01-10T14:15:08;2.27;;;1.27;;
12135;SDS011;6131;56.420;15.548;2024-01-10T14:17:34;1.83;;;1.60;;
12135;SDS011;6131;56.420;15.548;2024-01-10T14:20:00;2.70;;;1.60;;
12135;SDS011;6131;56.420;15.548;2024-01-10T14:22:26;3.67;;;1.97;;
12135;SDS011;6131;56.420;15.548;2024-01-10T14:24:53;1.80;;;1.50;;
12135;SDS011;6131;56.420;15.548;2024-01-10T14:27:19;2.10;;;1.80;;
12135;SDS011;6131;56.420;15.548;2024-01-10T14:29:45;2.23;;;1.87;;
12135;SDS011;6131;56.420;15.548;2024-01-10T14:32:12;3.13;;;1.97;;
12135;SDS011;6131;56.420;15.548;2024-01-10T14:34:41;2.77;;;1.57;;
12135;SDS011;6131;56.420;15.548;2024-01-10T14:37:07;1.70;;;1.40;;
12135;SDS011;6131;56.420;15.548;2024-01-10T14:39:34;3.23;;;1.90;;
12135;SDS011;6131;56.420;15.548;2024-01-10T14:42:04;2.27;;;1.63;;
12135;SDS011;6131;56.420;15.548;2024-01-10T14:44:31;2.63;;;2.00;;
12135;SDS011;6131;56.420;15.548;2024-01-10T14:46:58;1.70;;;1.50;;
12135;SDS011;6131;56.420;15.548;2024-01-10T14:49:24;2.53;;;1.80;;
12135;SDS011;6131;56.420;15.548;2024-01-10T14:51:50;2.40;;;1.60;;
12135;SDS011;6131;56.420;15.548;2024-01-10T14:54:16;2.63;;;1.70;;
12135;SDS011;6131;56.420;15.548;2024-01-10T14:56:43;2.63;;;2.00;;
12135;SDS011;6131;56.420;15.548;2024-01-10T14:59:10;2.80;;;2.10;;